Time;durP1;ratioP1;P1;durP2;ratioP2;P2;SDS_P1;SDS_P2;PMS_P1;PMS_P2;Temp;Humidity;BMP_temperature;BMP_pressure;BME280_temperature;BME280_humidity;BME280_pressure;Samples;Min_cycle;Max_cycle;Signal;HPM_P1;HPM_P2
2022/04/13 00:00:25;;;;;;;;;;;;;;;;;;1018773;28;3779;-69
2022/04/13 00:01:06;;;;;;;;;;;;;;;;;;1019396;28;3789;-69
2022/04/13 00:01:37;;;;;;;;;;;;;;;;;;1023230;28;2196;-69
2022/04/13 00:02:07;;;;;;;;;;;;;;;;;;1022087;28;3944;-68
2022/04/13 00:02:37;;;;;;;;;;;;;;;;;;1018886;28;4170;-68
2022/04/13 00:03:07;;;;;;;;;;;;;;;;;;1018179;28;3805;-68
2022/04/13 00:03:38;;;;;;;;;;;;;;;;;;1018447;28;2770;-68
2022/04/13 00:04:17;;;;;;;;;;;;;;;;;;1019685;28;3852;-68
2022/04/13 00:04:48;;;;;;;;;;;;;;;;;;1018936;28;2269;-69
2022/04/13 00:05:18;;;;;;;;;;;;;;;;;;1019469;28;3914;-70
2022/04/13 00:05:48;;;;;;;;;;;;;;;;;;1018972;28;2908;-68
2022/04/13 00:06:19;;;;;;;;;;;;;;;;;;1018089;28;3803;-68
2022/04/13 00:06:49;;;;;;;;;;;;;;;;;;1018938;28;2612;-67
2022/04/13 00:07:19;;;;;;;;;;;;;;;;;;1019181;28;3831;-67
2022/04/13 00:07:50;;;;;;;;;;;;;;;;;;1018839;28;2812;-69
2022/04/13 00:08:20;;;;;;;;;;;;;;;;;;1018705;28;3854;-69
2022/04/13 00:08:51;;;;;;;;;;;;;;;;;;1019551;28;2469;-69
2022/04/13 00:09:21;;;;;;;;;;;;;;;;;;1019470;28;3827;-68
2022/04/13 00:09:51;;;;;;;;;;;;;;;;;;1020039;28;1588;-69
2022/04/13 00:10:21;;;;;;;;;;;;;;;;;;1018923;28;4027;-68
2022/04/13 00:10:52;;;;;;;;;;;;;;;;;;1018328;28;2412;-68
2022/04/13 00:11:22;;;;;;;;;;;;;;;;;;1018524;28;3791;-69
2022/04/13 00:11:54;;;;;;;;;;;;;;;;;;1018390;28;2277;-68
2022/04/13 00:12:24;;;;;;;;;;;;;;;;;;1019456;28;4177;-68
2022/04/13 00:12:55;;;;;;;;;;;;;;;;;;1019154;28;2256;-68
2022/04/13 00:13:25;;;;;;;;;;;;;;;;;;1019226;28;3925;-68
2022/04/13 00:13:55;;;;;;;;;;;;;;;;;;1018369;28;3028;-68
2022/04/13 00:14:25;;;;;;;;;;;;;;;;;;1019295;28;3863;-69
2022/04/13 00:14:56;;;;;;;;;;;;;;;;;;1019821;28;1676;-69
2022/04/13 00:15:26;;;;;;;;;;;;;;;;;;1019149;28;3823;-68
2022/04/13 00:15:56;;;;;;;;;;;;;;;;;;1019913;28;2288;-69
2022/04/13 00:16:27;;;;;;;;;;;;;;;;;;1015047;28;3747;-70
2022/04/13 00:16:57;;;;;;;;;;;;;;;;;;1020330;28;1844;-68
2022/04/13 00:17:29;;;;;;;;;;;;;;;;;;1022083;28;3960;-67
2022/04/13 00:18:03;;;;;;;;;;;;;;;;;;1022662;28;3819;-68
2022/04/13 00:18:46;;;;;;;;;;;;;;;;;;1024331;28;2534;-68
2022/04/13 00:19:24;;;;;;;;;;;;;;;;;;1027428;28;3806;-69
2022/04/13 00:19:54;;;;;;;;;;;;;;;;;;1025529;28;3113;-69
2022/04/13 00:20:25;;;;;;;;;;;;;;;;;;1027015;28;3799;-69
2022/04/13 00:20:55;;;;;;;;;;;;;;;;;;1025858;28;2376;-69
2022/04/13 00:21:26;;;;;;;;;;;;;;;;;;1027493;28;3931;-69
2022/04/13 00:21:56;;;;;;;;;;;;;;;;;;1030834;28;2554;-67
2022/04/13 00:22:26;;;;;;;;;;;;;;;;;;1029942;28;3774;-69
2022/04/13 00:22:57;;;;;;;;;;;;;;;;;;1027475;28;3078;-69
2022/04/13 00:23:27;;;;;;;;;;;;;;;;;;1027226;28;3819;-69
2022/04/13 00:23:57;;;;;;;;;;;;;;;;;;1029712;28;2745;-69
2022/04/13 00:24:28;;;;;;;;;;;;;;;;;;1025707;28;18545;-69
2022/04/13 00:24:58;;;;;;;;;;;;;;;;;;1026834;28;3826;-69
2022/04/13 00:25:29;;;;;;;;;;;;;;;;;;1026737;28;2787;-67
2022/04/13 00:26:00;;;;;;;;;;;;;;;;;;1027042;28;3805;-68
2022/04/13 00:26:30;;;;;;;;;;;;;;;;;;1027356;28;2045;-69
2022/04/13 00:27:00;;;;;;;;;;;;;;;;;;1026906;28;3824;-68
2022/04/13 00:27:30;;;;;;;;;;;;;;;;;;1026746;28;2171;-69
2022/04/13 00:28:01;;;;;;;;;;;;;;;;;;1025982;28;3825;-69
2022/04/13 00:28:31;;;;;;;;;;;;;;;;;;1026581;28;2523;-69
2022/04/13 00:29:01;;;;;;;;;;;;;;;;;;1026166;28;3855;-69
2022/04/13 00:29:32;;;;;;;;;;;;;;;;;;1027300;28;2724;-70
2022/04/13 00:30:03;;;;;;;;;;;;;;;;;;1025095;28;3831;-69
2022/04/13 00:30:33;;;;;;;;;;;;;;;;;;1028104;28;2786;-69
2022/04/13 00:31:04;;;;;;;;;;;;;;;;;;1025522;28;3829;-69
2022/04/13 00:31:34;;;;;;;;;;;;;;;;;;1026028;28;2610;-67
2022/04/13 00:32:04;;;;;;;;;;;;;;;;;;1026504;28;3890;-68
2022/04/13 00:32:35;;;;;;;;;;;;;;;;;;1028595;28;2812;-69
2022/04/13 00:33:05;;;;;;;;;;;;;;;;;;1028840;28;3832;-69
2022/04/13 00:33:35;;;;;;;;;;;;;;;;;;1024644;28;2133;-69
2022/04/13 00:34:06;;;;;;;;;;;;;;;;;;1026324;28;3800;-70
2022/04/13 00:34:36;;;;;;;;;;;;;;;;;;1027129;28;2684;-69
2022/04/13 00:35:06;;;;;;;;;;;;;;;;;;1026739;28;3887;-68
2022/04/13 00:35:37;;;;;;;;;;;;;;;;;;1024436;28;3622;-68
2022/04/13 00:36:08;;;;;;;;;;;;;;;;;;1027194;28;3883;-68
2022/04/13 00:36:38;;;;;;;;;;;;;;;;;;1028475;28;3201;-70
2022/04/13 00:37:08;;;;;;;;;;;;;;;;;;1027020;28;3868;-68
2022/04/13 00:37:39;;;;;;;;;;;;;;;;;;1027892;28;2280;-68
2022/04/13 00:38:09;;;;;;;;;;;;;;;;;;1026908;28;3953;-68
2022/04/13 00:38:39;;;;;;;;;;;;;;;;;;1026184;28;2880;-68
2022/04/13 00:39:10;;;;;;;;;;;;;;;;;;1029279;28;3879;-68
2022/04/13 00:39:40;;;;;;;;;;;;;;;;;;1030854;28;2530;-68
2022/04/13 00:40:10;;;;;;;;;;;;;;;;;;1029235;28;3789;-69
2022/04/13 00:40:41;;;;;;;;;;;;;;;;;;1029717;28;2639;-69
2022/04/13 00:41:11;;;;;;;;;;;;;;;;;;1026745;28;3805;-68
2022/04/13 00:41:42;;;;;;;;;;;;;;;;;;1029514;28;2921;-68
2022/04/13 00:42:12;;;;;;;;;;;;;;;;;;1031365;28;3801;-67
2022/04/13 00:42:43;;;;;;;;;;;;;;;;;;1030425;28;2507;-69
2022/04/13 00:43:13;;;;;;;;;;;;;;;;;;1029671;28;3905;-68
2022/04/13 00:43:43;;;;;;;;;;;;;;;;;;1031001;28;2695;-68
2022/04/13 00:44:14;;;;;;;;;;;;;;;;;;1030073;28;4094;-70
2022/04/13 00:44:44;;;;;;;;;;;;;;;;;;1031170;28;2563;-69
2022/04/13 00:45:14;;;;;;;;;;;;;;;;;;1030757;28;3782;-68
2022/04/13 00:45:45;;;;;;;;;;;;;;;;;;1026582;28;2499;-67
2022/04/13 00:46:15;;;;;;;;;;;;;;;;;;1026627;28;3932;-69
2022/04/13 00:46:45;;;;;;;;;;;;;;;;;;1026514;28;3902;-70
2022/04/13 00:47:18;;;;;;;;;;;;;;;;;;1023979;28;3864;-69
2022/04/13 00:47:49;;;;;;;;;;;;;;;;;;1026311;28;3055;-70
2022/04/13 00:48:34;;;;;;;;;;;;;;;;;;1025844;28;3784;-68
2022/04/13 00:49:05;;;;;;;;;;;;;;;;;;1027113;28;3820;-69
2022/04/13 00:49:36;;;;;;;;;;;;;;;;;;1025833;28;2704;-69
2022/04/13 00:50:07;;;;;;;;;;;;;;;;;;1025344;28;3822;-69
2022/04/13 00:50:37;;;;;;;;;;;;;;;;;;1026419;28;2793;-68
2022/04/13 00:51:07;;;;;;;;;;;;;;;;;;1024802;28;3825;-69
2022/04/13 00:51:38;;;;;;;;;;;;;;;;;;1026513;28;2789;-68
2022/04/13 00:52:09;;;;;;;;;;;;;;;;;;1026125;28;3841;-69
2022/04/13 00:52:43;;;;;;;;;;;;;;;;;;1026486;28;2972;-68
2022/04/13 00:53:13;;;;;;;;;;;;;;;;;;1026504;28;3836;-68
2022/04/13 00:53:45;;;;;;;;;;;;;;;;;;1027381;28;2219;-68
2022/04/13 00:54:17;;;;;;;;;;;;;;;;;;1026442;28;3911;-68
2022/04/13 00:54:48;;;;;;;;;;;;;;;;;;1027303;28;3007;-69
2022/04/13 00:55:18;;;;;;;;;;;;;;;;;;1028681;28;3835;-69
2022/04/13 00:55:50;;;;;;;;;;;;;;;;;;1028723;28;1934;-69
2022/04/13 00:56:23;;;;;;;;;;;;;;;;;;1026465;28;3787;-69
2022/04/13 00:56:54;;;;;;;;;;;;;;;;;;1027140;28;2222;-69
2022/04/13 00:57:27;;;;;;;;;;;;;;;;;;1026504;28;3834;-67
2022/04/13 00:57:59;;;;;;;;;;;;;;;;;;1027575;28;2782;-67
2022/04/13 00:58:31;;;;;;;;;;;;;;;;;;1028586;28;3884;-68
2022/04/13 00:59:06;;;;;;;;;;;;;;;;;;1027707;28;3861;-68
2022/04/13 00:59:39;;;;;;;;;;;;;;;;;;1028505;28;2714;-68
2022/04/13 01:00:10;;;;;;;;;;;;;;;;;;1026766;28;3841;-68
2022/04/13 01:00:48;;;;;;;;;;;;;;;;;;1028119;28;2646;-68
2022/04/13 01:01:18;;;;;;;;;;;;;;;;;;1027027;28;3905;-68
2022/04/13 01:01:49;;;;;;;;;;;;;;;;;;1027722;28;3019;-69
2022/04/13 01:02:20;;;;;;;;;;;;;;;;;;1027941;28;3798;-69
2022/04/13 01:02:52;;;;;;;;;;;;;;;;;;1027180;28;3011;-70
2022/04/13 01:03:24;;;;;;;;;;;;;;;;;;1026356;28;3789;-70
2022/04/13 01:03:55;;;;;;;;;;;;;;;;;;1028282;28;2944;-70
2022/04/13 01:04:33;;;;;;;;;;;;;;;;;;1027608;28;3687;-68
2022/04/13 01:05:05;;;;;;;;;;;;;;;;;;1027223;28;3868;-68
2022/04/13 01:05:36;;;;;;;;;;;;;;;;;;1026773;28;2823;-70
2022/04/13 01:06:06;;;;;;;;;;;;;;;;;;1026188;28;3830;-68
2022/04/13 01:06:37;;;;;;;;;;;;;;;;;;1027312;28;2849;-68
2022/04/13 01:07:08;;;;;;;;;;;;;;;;;;1026062;28;3840;-70
2022/04/13 01:07:39;;;;;;;;;;;;;;;;;;1027676;28;2580;-68
2022/04/13 01:08:10;;;;;;;;;;;;;;;;;;1026104;28;3796;-69
2022/04/13 01:08:41;;;;;;;;;;;;;;;;;;1027822;28;1800;-68
2022/04/13 01:09:12;;;;;;;;;;;;;;;;;;1026272;28;4740;-68
2022/04/13 01:09:42;;;;;;;;;;;;;;;;;;1027476;28;3004;-68
2022/04/13 01:10:12;;;;;;;;;;;;;;;;;;1029056;28;3816;-68
2022/04/13 01:10:44;;;;;;;;;;;;;;;;;;1029096;28;2556;-68
2022/04/13 01:11:14;;;;;;;;;;;;;;;;;;1029974;28;3781;-70
2022/04/13 01:11:44;;;;;;;;;;;;;;;;;;1025808;28;2696;-69
2022/04/13 01:12:15;;;;;;;;;;;;;;;;;;1027314;28;3980;-71
2022/04/13 01:12:46;;;;;;;;;;;;;;;;;;1022368;28;2772;-69
2022/04/13 01:13:17;;;;;;;;;;;;;;;;;;1016755;29;3835;-69
2022/04/13 01:13:47;;;;;;;;;;;;;;;;;;1021741;28;2689;-69
2022/04/13 01:14:18;;;;;;;;;;;;;;;;;;1020746;28;3832;-70
2022/04/13 01:14:48;;;;;;;;;;;;;;;;;;1027850;28;3431;-71
2022/04/13 01:15:18;;;;;;;;;;;;;;;;;;1025988;28;3824;-69
2022/04/13 01:15:49;;;;;;;;;;;;;;;;;;1029027;28;2385;-70
2022/04/13 01:16:22;;;;;;;;;;;;;;;;;;1027060;28;3751;-69
2022/04/13 01:16:52;;;;;;;;;;;;;;;;;;1027898;28;2829;-68
2022/04/13 01:17:23;;;;;;;;;;;;;;;;;;1026714;28;3776;-69
2022/04/13 01:17:53;;;;;;;;;;;;;;;;;;1027235;28;3109;-70
2022/04/13 01:18:37;;;;;;;;;;;;;;;;;;1025525;28;3846;-69
2022/04/13 01:19:17;;;;;;;;;;;;;;;;;;1027696;28;3817;-68
2022/04/13 01:19:47;;;;;;;;;;;;;;;;;;1027464;28;2789;-70
2022/04/13 01:20:22;;;;;;;;;;;;;;;;;;1026797;28;3866;-69
2022/04/13 01:20:56;;;;;;;;;;;;;;;;;;1029311;28;3018;-68
2022/04/13 01:21:37;;;;;;;;;;;;;;;;;;1028889;28;3766;-68
2022/04/13 01:22:20;;;;;;;;;;;;;;;;;;1027089;28;3879;-68
2022/04/13 01:22:50;;;;;;;;;;;;;;;;;;1028035;28;2153;-67
2022/04/13 01:23:21;;;;;;;;;;;;;;;;;;1026975;28;3869;-69
2022/04/13 01:23:51;;;;;;;;;;;;;;;;;;1027964;28;1743;-69
2022/04/13 01:24:21;;;;;;;;;;;;;;;;;;1026021;28;3799;-69
2022/04/13 01:24:52;;;;;;;;;;;;;;;;;;1026345;28;2502;-68
2022/04/13 01:25:22;;;;;;;;;;;;;;;;;;1027560;28;3806;-68
2022/04/13 01:25:54;;;;;;;;;;;;;;;;;;1027994;28;1865;-67
2022/04/13 01:26:24;;;;;;;;;;;;;;;;;;1026719;28;3844;-69
2022/04/13 01:26:54;;;;;;;;;;;;;;;;;;1027962;28;3393;-68
2022/04/13 01:27:26;;;;;;;;;;;;;;;;;;1028309;28;3779;-68
2022/04/13 01:27:56;;;;;;;;;;;;;;;;;;1027176;28;2216;-67
2022/04/13 01:28:26;;;;;;;;;;;;;;;;;;1026387;28;3909;-69
2022/04/13 01:28:57;;;;;;;;;;;;;;;;;;1027156;28;2650;-69
2022/04/13 01:29:27;;;;;;;;;;;;;;;;;;1028014;28;3779;-68
2022/04/13 01:29:57;;;;;;;;;;;;;;;;;;1029771;28;1143;-69
2022/04/13 01:30:27;;;;;;;;;;;;;;;;;;1027333;28;4154;-67
2022/04/13 01:30:58;;;;;;;;;;;;;;;;;;1028009;28;1696;-69
2022/04/13 01:31:28;;;;;;;;;;;;;;;;;;1027151;28;3716;-69
2022/04/13 01:31:58;;;;;;;;;;;;;;;;;;1027269;28;3872;-67
2022/04/13 01:32:29;;;;;;;;;;;;;;;;;;1028276;28;3243;-68
2022/04/13 01:32:59;;;;;;;;;;;;;;;;;;1027937;28;3801;-68
2022/04/13 01:33:29;;;;;;;;;;;;;;;;;;1030376;28;2850;-69
2022/04/13 01:34:00;;;;;;;;;;;;;;;;;;1029202;28;3888;-69
2022/04/13 01:34:37;;;;;;;;;;;;;;;;;;1029185;28;2520;-68
2022/04/13 01:35:07;;;;;;;;;;;;;;;;;;1027901;28;3832;-68
2022/04/13 01:35:38;;;;;;;;;;;;;;;;;;1028173;28;2773;-68
2022/04/13 01:36:08;;;;;;;;;;;;;;;;;;1027042;28;3885;-69
2022/04/13 01:36:38;;;;;;;;;;;;;;;;;;1026275;28;3115;-69
2022/04/13 01:37:10;;;;;;;;;;;;;;;;;;1026852;28;3880;-67
2022/04/13 01:37:40;;;;;;;;;;;;;;;;;;1026558;28;2653;-68
2022/04/13 01:38:11;;;;;;;;;;;;;;;;;;1027242;28;3801;-68
2022/04/13 01:38:42;;;;;;;;;;;;;;;;;;1028038;28;1518;-69
2022/04/13 01:39:18;;;;;;;;;;;;;;;;;;1025473;28;3986;-69
2022/04/13 01:39:48;;;;;;;;;;;;;;;;;;1026358;28;3152;-69
2022/04/13 01:40:19;;;;;;;;;;;;;;;;;;1026719;28;3767;-68
2022/04/13 01:40:51;;;;;;;;;;;;;;;;;;1027819;28;1744;-68
2022/04/13 01:41:30;;;;;;;;;;;;;;;;;;1027413;28;4844;-67
2022/04/13 01:42:00;;;;;;;;;;;;;;;;;;1027507;28;3991;-69
2022/04/13 01:42:39;;;;;;;;;;;;;;;;;;1028104;28;1819;-68
2022/04/13 01:43:10;;;;;;;;;;;;;;;;;;1025902;28;3805;-68
2022/04/13 01:43:40;;;;;;;;;;;;;;;;;;1027614;28;2992;-69
2022/04/13 01:44:13;;;;;;;;;;;;;;;;;;1028065;28;3809;-69
2022/04/13 01:44:44;;;;;;;;;;;;;;;;;;1028160;28;3060;-68
2022/04/13 01:45:19;;;;;;;;;;;;;;;;;;1027177;28;3837;-68
2022/04/13 01:45:50;;;;;;;;;;;;;;;;;;1028176;28;1681;-68
2022/04/13 01:46:20;;;;;;;;;;;;;;;;;;1027922;28;3899;-68
2022/04/13 01:46:50;;;;;;;;;;;;;;;;;;1027626;28;3107;-68
2022/04/13 01:47:21;;;;;;;;;;;;;;;;;;1025823;28;3914;-68
2022/04/13 01:47:51;;;;;;;;;;;;;;;;;;1028162;28;2024;-68
2022/04/13 01:48:22;;;;;;;;;;;;;;;;;;1027450;28;3763;-69
2022/04/13 01:48:52;;;;;;;;;;;;;;;;;;1027304;28;2687;-68
2022/04/13 01:49:23;;;;;;;;;;;;;;;;;;1027670;28;3799;-68
2022/04/13 01:49:54;;;;;;;;;;;;;;;;;;1027588;28;2819;-68
2022/04/13 01:50:24;;;;;;;;;;;;;;;;;;1027357;28;3878;-68
2022/04/13 01:50:55;;;;;;;;;;;;;;;;;;1027966;28;1720;-68
2022/04/13 01:51:25;;;;;;;;;;;;;;;;;;1026619;28;3770;-67
2022/04/13 01:51:55;;;;;;;;;;;;;;;;;;1028167;28;2115;-69
2022/04/13 01:52:25;;;;;;;;;;;;;;;;;;1026800;28;3841;-70
2022/04/13 01:52:56;;;;;;;;;;;;;;;;;;1028836;28;2683;-68
2022/04/13 01:53:26;;;;;;;;;;;;;;;;;;1027153;28;3817;-68
2022/04/13 01:53:57;;;;;;;;;;;;;;;;;;1027094;28;2432;-68
2022/04/13 01:54:27;;;;;;;;;;;;;;;;;;1028130;28;4082;-68
2022/04/13 01:54:57;;;;;;;;;;;;;;;;;;1028115;28;1619;-68
2022/04/13 01:55:27;;;;;;;;;;;;;;;;;;1026796;28;3726;-69
2022/04/13 01:55:58;;;;;;;;;;;;;;;;;;1032091;28;2454;-69
2022/04/13 01:56:28;;;;;;;;;;;;;;;;;;1026947;28;3679;-69
2022/04/13 01:56:58;;;;;;;;;;;;;;;;;;1026237;28;3838;-68
2022/04/13 01:57:28;;;;;;;;;;;;;;;;;;1024946;28;2499;-68
2022/04/13 01:57:59;;;;;;;;;;;;;;;;;;1023598;28;3855;-68
2022/04/13 01:58:30;;;;;;;;;;;;;;;;;;1025749;28;2728;-69
2022/04/13 01:59:01;;;;;;;;;;;;;;;;;;1025001;28;3885;-69
2022/04/13 01:59:32;;;;;;;;;;;;;;;;;;1030895;28;1855;-68
2022/04/13 02:00:03;;;;;;;;;;;;;;;;;;1031797;28;3828;-68
2022/04/13 02:00:33;;;;;;;;;;;;;;;;;;1028884;28;2752;-68
2022/04/13 02:01:04;;;;;;;;;;;;;;;;;;1027465;28;3881;-69
2022/04/13 02:01:41;;;;;;;;;;;;;;;;;;1029212;28;1724;-68
2022/04/13 02:02:12;;;;;;;;;;;;;;;;;;1026619;28;3829;-69
2022/04/13 02:02:42;;;;;;;;;;;;;;;;;;1027053;28;3109;-67
2022/04/13 02:03:12;;;;;;;;;;;;;;;;;;1027670;28;3844;-68
2022/04/13 02:03:43;;;;;;;;;;;;;;;;;;1028356;28;2433;-69
2022/04/13 02:04:21;;;;;;;;;;;;;;;;;;1026067;28;3807;-69
2022/04/13 02:04:51;;;;;;;;;;;;;;;;;;1026882;28;2848;-69
2022/04/13 02:05:21;;;;;;;;;;;;;;;;;;1026118;28;3961;-68
2022/04/13 02:05:54;;;;;;;;;;;;;;;;;;1028572;28;2716;-69
2022/04/13 02:06:25;;;;;;;;;;;;;;;;;;1027555;28;3807;-69
2022/04/13 02:06:55;;;;;;;;;;;;;;;;;;1031144;28;2813;-69
2022/04/13 02:07:32;;;;;;;;;;;;;;;;;;1031616;28;3846;-69
2022/04/13 02:08:03;;;;;;;;;;;;;;;;;;1031670;28;4240;-69
2022/04/13 02:08:33;;;;;;;;;;;;;;;;;;1031248;28;1702;-68
2022/04/13 02:09:03;;;;;;;;;;;;;;;;;;1026225;28;3841;-68
2022/04/13 02:09:34;;;;;;;;;;;;;;;;;;1030779;28;2449;-69
2022/04/13 02:10:05;;;;;;;;;;;;;;;;;;1031296;28;4109;-68
2022/04/13 02:10:35;;;;;;;;;;;;;;;;;;1029135;28;2645;-67
2022/04/13 02:11:06;;;;;;;;;;;;;;;;;;1032760;28;3935;-68
2022/04/13 02:11:36;;;;;;;;;;;;;;;;;;1027380;28;2717;-69
2022/04/13 02:12:06;;;;;;;;;;;;;;;;;;1029737;28;3825;-69
2022/04/13 02:12:37;;;;;;;;;;;;;;;;;;1027631;28;1729;-69
2022/04/13 02:13:07;;;;;;;;;;;;;;;;;;1026414;28;3809;-68
2022/04/13 02:13:39;;;;;;;;;;;;;;;;;;1028251;28;2022;-68
2022/04/13 02:14:10;;;;;;;;;;;;;;;;;;1028878;28;3801;-67
2022/04/13 02:14:40;;;;;;;;;;;;;;;;;;1027901;28;2556;-69
2022/04/13 02:15:10;;;;;;;;;;;;;;;;;;1025450;28;3968;-68
2022/04/13 02:15:41;;;;;;;;;;;;;;;;;;1028935;28;2916;-67
2022/04/13 02:16:11;;;;;;;;;;;;;;;;;;1026929;28;3839;-69
2022/04/13 02:16:42;;;;;;;;;;;;;;;;;;1027921;28;1703;-69
2022/04/13 02:17:16;;;;;;;;;;;;;;;;;;1026908;28;3824;-68
2022/04/13 02:17:46;;;;;;;;;;;;;;;;;;1030173;28;2422;-68
2022/04/13 02:18:17;;;;;;;;;;;;;;;;;;1024539;28;3817;-68
2022/04/13 02:19:00;;;;;;;;;;;;;;;;;;1024521;28;2769;-69
2022/04/13 02:19:37;;;;;;;;;;;;;;;;;;1027278;28;3970;-68
2022/04/13 02:20:08;;;;;;;;;;;;;;;;;;1028858;28;4047;-69
2022/04/13 02:20:38;;;;;;;;;;;;;;;;;;1028695;28;2462;-67
2022/04/13 02:21:09;;;;;;;;;;;;;;;;;;1027984;28;4011;-69
2022/04/13 02:21:39;;;;;;;;;;;;;;;;;;1027177;28;3003;-68
2022/04/13 02:22:10;;;;;;;;;;;;;;;;;;1028849;28;4012;-67
2022/04/13 02:22:43;;;;;;;;;;;;;;;;;;1029631;28;3047;-68
2022/04/13 02:23:13;;;;;;;;;;;;;;;;;;1028318;28;3808;-68
2022/04/13 02:23:43;;;;;;;;;;;;;;;;;;1028327;28;1636;-68
2022/04/13 02:24:14;;;;;;;;;;;;;;;;;;1027907;28;4268;-69
2022/04/13 02:24:44;;;;;;;;;;;;;;;;;;1028163;28;2786;-70
2022/04/13 02:25:14;;;;;;;;;;;;;;;;;;1025750;28;3836;-67
2022/04/13 02:25:45;;;;;;;;;;;;;;;;;;1027707;28;2737;-69
2022/04/13 02:26:15;;;;;;;;;;;;;;;;;;1026095;28;3817;-69
2022/04/13 02:26:45;;;;;;;;;;;;;;;;;;1027620;28;2032;-68
2022/04/13 02:27:16;;;;;;;;;;;;;;;;;;1025532;28;3864;-68
2022/04/13 02:27:46;;;;;;;;;;;;;;;;;;1027358;28;3092;-68
2022/04/13 02:28:16;;;;;;;;;;;;;;;;;;1028743;28;3819;-68
2022/04/13 02:28:48;;;;;;;;;;;;;;;;;;1023616;28;2717;-69
2022/04/13 02:29:18;;;;;;;;;;;;;;;;;;1023655;28;3805;-69
2022/04/13 02:29:50;;;;;;;;;;;;;;;;;;1024001;28;2973;-69
2022/04/13 02:30:20;;;;;;;;;;;;;;;;;;1026769;28;3842;-69
2022/04/13 02:30:50;;;;;;;;;;;;;;;;;;1026264;28;2267;-69
2022/04/13 02:31:21;;;;;;;;;;;;;;;;;;1027061;28;3784;-68
2022/04/13 02:31:51;;;;;;;;;;;;;;;;;;1026746;28;2410;-69
2022/04/13 02:32:21;;;;;;;;;;;;;;;;;;1022335;28;3813;-69
2022/04/13 02:32:51;;;;;;;;;;;;;;;;;;1026265;28;2833;-68
2022/04/13 02:33:22;;;;;;;;;;;;;;;;;;1027305;28;4050;-68
2022/04/13 02:33:54;;;;;;;;;;;;;;;;;;1021045;28;2759;-68
2022/04/13 02:34:24;;;;;;;;;;;;;;;;;;1027543;28;3817;-68
2022/04/13 02:34:54;;;;;;;;;;;;;;;;;;1026529;28;2890;-69
2022/04/13 02:35:25;;;;;;;;;;;;;;;;;;1024958;28;3799;-68
2022/04/13 02:35:55;;;;;;;;;;;;;;;;;;1026829;28;2587;-67
2022/04/13 02:36:25;;;;;;;;;;;;;;;;;;1030125;28;3770;-69
2022/04/13 02:36:56;;;;;;;;;;;;;;;;;;1027634;28;3075;-67
2022/04/13 02:37:27;;;;;;;;;;;;;;;;;;1027100;28;3830;-68
2022/04/13 02:37:57;;;;;;;;;;;;;;;;;;1027923;28;2589;-69
2022/04/13 02:38:27;;;;;;;;;;;;;;;;;;1029178;28;3794;-69
2022/04/13 02:38:57;;;;;;;;;;;;;;;;;;1028719;28;2322;-69
2022/04/13 02:39:28;;;;;;;;;;;;;;;;;;1027588;28;3850;-69
2022/04/13 02:39:58;;;;;;;;;;;;;;;;;;1029180;28;3805;-68
2022/04/13 02:40:29;;;;;;;;;;;;;;;;;;1027415;28;2946;-68
2022/04/13 02:41:00;;;;;;;;;;;;;;;;;;1028443;28;3837;-69
2022/04/13 02:41:32;;;;;;;;;;;;;;;;;;1027306;28;2084;-67
2022/04/13 02:42:02;;;;;;;;;;;;;;;;;;1026578;28;3829;-68
2022/04/13 02:42:33;;;;;;;;;;;;;;;;;;1027680;28;2056;-67
2022/04/13 02:43:04;;;;;;;;;;;;;;;;;;1025871;28;3865;-68
2022/04/13 02:43:34;;;;;;;;;;;;;;;;;;1027314;28;1363;-68
2022/04/13 02:44:04;;;;;;;;;;;;;;;;;;1024975;28;3978;-68
2022/04/13 02:44:36;;;;;;;;;;;;;;;;;;1026910;28;2510;-69
2022/04/13 02:45:06;;;;;;;;;;;;;;;;;;1026892;28;3876;-68
2022/04/13 02:45:37;;;;;;;;;;;;;;;;;;1026947;28;3414;-68
2022/04/13 02:46:07;;;;;;;;;;;;;;;;;;1026465;28;3937;-68
2022/04/13 02:46:38;;;;;;;;;;;;;;;;;;1028580;28;2866;-70
2022/04/13 02:47:08;;;;;;;;;;;;;;;;;;1025849;28;3860;-68
2022/04/13 02:47:38;;;;;;;;;;;;;;;;;;1027285;28;2821;-68
2022/04/13 02:48:08;;;;;;;;;;;;;;;;;;1026156;28;3902;-68
2022/04/13 02:48:39;;;;;;;;;;;;;;;;;;1027997;28;2367;-69
2022/04/13 02:49:09;;;;;;;;;;;;;;;;;;1026302;28;3917;-68
2022/04/13 02:49:40;;;;;;;;;;;;;;;;;;1027440;28;2667;-69
2022/04/13 02:50:11;;;;;;;;;;;;;;;;;;1026471;28;3917;-69
2022/04/13 02:50:41;;;;;;;;;;;;;;;;;;1028901;28;1569;-68
2022/04/13 02:51:11;;;;;;;;;;;;;;;;;;1027971;28;3818;-70
2022/04/13 02:51:42;;;;;;;;;;;;;;;;;;1027542;28;2808;-68
2022/04/13 02:52:12;;;;;;;;;;;;;;;;;;1026882;28;3829;-68
2022/04/13 02:52:42;;;;;;;;;;;;;;;;;;1024947;28;2878;-68
2022/04/13 02:53:12;;;;;;;;;;;;;;;;;;1025907;28;3903;-69
2022/04/13 02:53:43;;;;;;;;;;;;;;;;;;1026260;28;2923;-68
2022/04/13 02:54:13;;;;;;;;;;;;;;;;;;1028095;28;3835;-69
2022/04/13 02:54:43;;;;;;;;;;;;;;;;;;1028559;28;2597;-69
2022/04/13 02:55:14;;;;;;;;;;;;;;;;;;1027659;28;3873;-68
2022/04/13 02:55:44;;;;;;;;;;;;;;;;;;1026650;28;3029;-69
2022/04/13 02:56:15;;;;;;;;;;;;;;;;;;1026739;28;3840;-69
2022/04/13 02:56:45;;;;;;;;;;;;;;;;;;1026156;28;2501;-69
2022/04/13 02:57:15;;;;;;;;;;;;;;;;;;1026343;28;3805;-69
2022/04/13 02:57:46;;;;;;;;;;;;;;;;;;1027278;28;3139;-68
2022/04/13 02:58:16;;;;;;;;;;;;;;;;;;1029963;28;3901;-68
2022/04/13 02:58:46;;;;;;;;;;;;;;;;;;1029480;28;2618;-70
2022/04/13 02:59:17;;;;;;;;;;;;;;;;;;1027552;28;3818;-69
2022/04/13 02:59:48;;;;;;;;;;;;;;;;;;1029326;28;2496;-69
2022/04/13 03:00:19;;;;;;;;;;;;;;;;;;1027428;28;3787;-68
2022/04/13 03:00:49;;;;;;;;;;;;;;;;;;1027952;28;2466;-69
2022/04/13 03:01:19;;;;;;;;;;;;;;;;;;1025610;28;3807;-67
2022/04/13 03:01:50;;;;;;;;;;;;;;;;;;1026461;28;3139;-67
2022/04/13 03:02:20;;;;;;;;;;;;;;;;;;1026193;28;3875;-68
2022/04/13 03:02:50;;;;;;;;;;;;;;;;;;1027373;28;3104;-69
2022/04/13 03:03:21;;;;;;;;;;;;;;;;;;1028355;28;3993;-70
2022/04/13 03:03:51;;;;;;;;;;;;;;;;;;1029973;28;2811;-68
2022/04/13 03:04:22;;;;;;;;;;;;;;;;;;1026677;28;3915;-69
2022/04/13 03:04:52;;;;;;;;;;;;;;;;;;1028971;28;2977;-68
2022/04/13 03:05:22;;;;;;;;;;;;;;;;;;1030006;28;3823;-68
2022/04/13 03:05:52;;;;;;;;;;;;;;;;;;1028477;28;2682;-68
2022/04/13 03:06:23;;;;;;;;;;;;;;;;;;1027330;28;3840;-67
2022/04/13 03:06:54;;;;;;;;;;;;;;;;;;1026869;28;2605;-68
2022/04/13 03:07:26;;;;;;;;;;;;;;;;;;1028662;28;3879;-68
2022/04/13 03:08:05;;;;;;;;;;;;;;;;;;1029366;28;4230;-68
2022/04/13 03:08:35;;;;;;;;;;;;;;;;;;1031349;28;1546;-69
2022/04/13 03:09:05;;;;;;;;;;;;;;;;;;1027649;28;3832;-68
2022/04/13 03:09:35;;;;;;;;;;;;;;;;;;1028321;28;2717;-69
2022/04/13 03:10:06;;;;;;;;;;;;;;;;;;1027359;28;3821;-67
2022/04/13 03:10:37;;;;;;;;;;;;;;;;;;1027638;28;2898;-67
2022/04/13 03:11:08;;;;;;;;;;;;;;;;;;1028232;28;3817;-67
2022/04/13 03:11:40;;;;;;;;;;;;;;;;;;1029900;28;3122;-69
2022/04/13 03:12:11;;;;;;;;;;;;;;;;;;1025630;28;3801;-70
2022/04/13 03:12:42;;;;;;;;;;;;;;;;;;1027949;28;2804;-70
2022/04/13 03:13:12;;;;;;;;;;;;;;;;;;1029110;28;3815;-68
2022/04/13 03:13:43;;;;;;;;;;;;;;;;;;1029531;28;2568;-69
2022/04/13 03:14:13;;;;;;;;;;;;;;;;;;1030016;28;3793;-70
2022/04/13 03:14:43;;;;;;;;;;;;;;;;;;1030611;28;2101;-68
2022/04/13 03:15:14;;;;;;;;;;;;;;;;;;1028450;28;3867;-69
2022/04/13 03:15:45;;;;;;;;;;;;;;;;;;1028654;28;2276;-68
2022/04/13 03:16:15;;;;;;;;;;;;;;;;;;1027514;28;3793;-68
2022/04/13 03:16:45;;;;;;;;;;;;;;;;;;1027218;28;1884;-68
2022/04/13 03:17:16;;;;;;;;;;;;;;;;;;1031811;28;3813;-68
2022/04/13 03:17:46;;;;;;;;;;;;;;;;;;1030049;28;2563;-68
2022/04/13 03:18:16;;;;;;;;;;;;;;;;;;1032855;28;3866;-69
2022/04/13 03:19:01;;;;;;;;;;;;;;;;;;1032044;28;1342;-68
2022/04/13 03:19:37;;;;;;;;;;;;;;;;;;1028511;28;3709;-69
2022/04/13 03:20:08;;;;;;;;;;;;;;;;;;1028550;28;3852;-67
2022/04/13 03:20:38;;;;;;;;;;;;;;;;;;1029192;28;2754;-70
2022/04/13 03:21:09;;;;;;;;;;;;;;;;;;1029091;28;3921;-68
2022/04/13 03:21:39;;;;;;;;;;;;;;;;;;1028755;28;2638;-69
2022/04/13 03:22:09;;;;;;;;;;;;;;;;;;1028604;28;3877;-68
2022/04/13 03:22:40;;;;;;;;;;;;;;;;;;1030499;28;2144;-69
2022/04/13 03:23:10;;;;;;;;;;;;;;;;;;1028867;28;4256;-69
2022/04/13 03:23:40;;;;;;;;;;;;;;;;;;1026217;28;3781;-68
2022/04/13 03:24:10;;;;;;;;;;;;;;;;;;1027771;28;3896;-68
2022/04/13 03:24:41;;;;;;;;;;;;;;;;;;1027282;28;2956;-69
2022/04/13 03:25:11;;;;;;;;;;;;;;;;;;1028845;28;3817;-68
2022/04/13 03:25:41;;;;;;;;;;;;;;;;;;1026839;28;3152;-69
2022/04/13 03:26:11;;;;;;;;;;;;;;;;;;1024948;28;3830;-68
2022/04/13 03:26:42;;;;;;;;;;;;;;;;;;1025891;28;2912;-69
2022/04/13 03:27:12;;;;;;;;;;;;;;;;;;1025360;28;3921;-68
2022/04/13 03:27:42;;;;;;;;;;;;;;;;;;1026317;28;2471;-67
2022/04/13 03:28:12;;;;;;;;;;;;;;;;;;1028689;28;3857;-69
2022/04/13 03:28:43;;;;;;;;;;;;;;;;;;1028537;28;2788;-67
2022/04/13 03:29:13;;;;;;;;;;;;;;;;;;1026909;28;3821;-68
2022/04/13 03:29:43;;;;;;;;;;;;;;;;;;1031655;28;1747;-68
2022/04/13 03:30:16;;;;;;;;;;;;;;;;;;1031737;28;3820;-69
2022/04/13 03:30:46;;;;;;;;;;;;;;;;;;1026884;28;1542;-69
2022/04/13 03:31:16;;;;;;;;;;;;;;;;;;1021189;28;3905;-68
2022/04/13 03:31:47;;;;;;;;;;;;;;;;;;1025515;28;2624;-67
2022/04/13 03:32:17;;;;;;;;;;;;;;;;;;1025722;28;3804;-68
2022/04/13 03:32:48;;;;;;;;;;;;;;;;;;1025872;28;3040;-68
2022/04/13 03:33:18;;;;;;;;;;;;;;;;;;1027644;28;3884;-68
2022/04/13 03:33:49;;;;;;;;;;;;;;;;;;1029840;28;2762;-70
2022/04/13 03:34:20;;;;;;;;;;;;;;;;;;1026915;28;3783;-67
2022/04/13 03:34:50;;;;;;;;;;;;;;;;;;1028312;28;1763;-68
2022/04/13 03:35:22;;;;;;;;;;;;;;;;;;1026551;28;3803;-69
2022/04/13 03:35:52;;;;;;;;;;;;;;;;;;1027431;28;2608;-69
2022/04/13 03:36:22;;;;;;;;;;;;;;;;;;1026071;28;4010;-68